Time;durP1;ratioP1;P1;durP2;ratioP2;P2;SDS_P1;SDS_P2;PMS_P1;PMS_P2;Temp;Humidity;BMP_temperature;BMP_pressure;BME280_temperature;BME280_humidity;BME280_pressure;Samples;Min_cycle;Max_cycle;Signal;HPM_P1;HPM_P2
2022/04/13 00:01:24;;;;;;;0.40;0.40;;;;;;;6.39;100.00;100295.50;5048497;28;20028;-77
2022/04/13 00:03:49;;;;;;;0.50;0.50;;;;;;;6.29;100.00;100294.78;5067883;28;20385;-75
2022/04/13 00:06:15;;;;;;;0.50;0.50;;;;;;;6.17;100.00;100290.72;5050500;28;20024;-76
2022/04/13 00:08:43;;;;;;;0.40;0.40;;;;;;;6.07;100.00;100292.66;5061173;28;20450;-77
2022/04/13 00:11:09;;;;;;;0.50;0.50;;;;;;;5.98;100.00;100301.59;5034946;28;20123;-76
2022/04/13 00:13:34;;;;;;;0.40;0.40;;;;;;;5.90;100.00;100295.22;5034472;28;20176;-77
2022/04/13 00:16:00;;;;;;;0.40;0.40;;;;;;;5.83;100.00;100307.50;5065500;28;20071;-77
2022/04/13 00:18:26;;;;;;;0.40;0.40;;;;;;;5.70;100.00;100304.41;5045942;28;20039;-77
2022/04/13 00:20:51;;;;;;;0.40;0.40;;;;;;;5.56;100.00;100302.25;5035321;28;20361;-77
2022/04/13 00:23:18;;;;;;;0.43;0.43;;;;;;;5.42;100.00;100295.66;5061194;28;20028;-77
2022/04/13 00:25:47;;;;;;;0.40;0.40;;;;;;;5.47;100.00;100304.03;5052852;28;20028;-76
2022/04/13 00:28:22;;;;;;;0.40;0.40;;;;;;;5.61;100.00;100313.31;5047681;28;20036;-76
2022/04/13 00:30:51;;;;;;;0.40;0.40;;;;;;;5.66;100.00;100311.88;5067402;28;20073;-78
2022/04/13 00:33:17;;;;;;;0.75;0.75;;;;;;;5.75;100.00;100311.94;5060296;28;20278;-77
2022/04/13 00:35:42;;;;;;;0.40;0.40;;;;;;;5.80;100.00;100315.81;5049453;28;20161;-77
2022/04/13 00:38:08;;;;;;;0.40;0.40;;;;;;;5.85;100.00;100318.84;5051549;28;20478;-77
2022/04/13 00:40:38;;;;;;;0.40;0.40;;;;;;;5.83;100.00;100318.16;5051690;28;20083;-76
2022/04/13 00:43:09;;;;;;;0.40;0.40;;;;;;;5.70;100.00;100325.75;5050835;28;20298;-77
2022/04/13 00:45:37;;;;;;;0.40;0.40;;;;;;;5.52;100.00;100323.09;5082417;28;20107;-76
2022/04/13 00:48:03;;;;;;;1.15;1.15;;;;;;;5.41;100.00;100323.31;5067715;28;20427;-76
2022/04/13 00:50:29;;;;;;;0.50;0.50;;;;;;;5.33;100.00;100328.59;5032052;28;20024;-76
2022/04/13 00:52:56;;;;;;;0.40;0.40;;;;;;;5.30;100.00;100329.72;5068474;28;20036;-78
2022/04/13 00:55:24;;;;;;;0.40;0.40;;;;;;;5.26;100.00;100326.50;5067303;28;20040;-75
2022/04/13 00:57:50;;;;;;;0.40;0.40;;;;;;;5.18;100.00;100326.44;5072056;28;20051;-76
2022/04/13 01:00:21;;;;;;;0.40;0.40;;;;;;;5.08;100.00;100328.34;5069640;28;20028;-76
2022/04/13 01:02:47;;;;;;;0.50;0.50;;;;;;;5.04;100.00;100316.31;5038861;28;20462;-76
2022/04/13 01:05:15;;;;;;;0.40;0.40;;;;;;;5.07;100.00;100316.84;5033285;28;20025;-75
2022/04/13 01:07:43;;;;;;;0.40;0.40;;;;;;;5.04;100.00;100329.63;5051534;28;20040;-77
2022/04/13 01:10:10;;;;;;;0.40;0.40;;;;;;;4.99;100.00;100337.22;5052573;28;20063;-75
2022/04/13 01:12:38;;;;;;;0.40;0.40;;;;;;;5.04;100.00;100329.63;5069050;28;20427;-76
2022/04/13 01:15:04;;;;;;;0.40;0.40;;;;;;;5.06;100.00;100325.81;5036684;28;20028;-75
2022/04/13 01:17:30;;;;;;;0.45;0.45;;;;;;;5.19;100.00;100340.63;5068397;28;20067;-74
2022/04/13 01:19:57;;;;;;;0.40;0.40;;;;;;;5.34;100.00;100351.56;5070689;28;20029;-77
2022/04/13 01:22:25;;;;;;;0.40;0.40;;;;;;;5.38;100.00;100347.63;5071235;28;20036;-78
2022/04/13 01:24:51;;;;;;;0.40;0.40;;;;;;;5.43;100.00;100345.34;5052423;28;20123;-78
2022/04/13 01:27:17;;;;;;;0.50;0.50;;;;;;;5.45;100.00;100341.53;5068022;28;20491;-78
2022/04/13 01:29:43;;;;;;;0.40;0.40;;;;;;;5.42;100.00;100331.16;5068171;28;20063;-75
2022/04/13 01:32:12;;;;;;;0.40;0.40;;;;;;;5.51;100.00;100350.75;5036835;28;20531;-76
2022/04/13 01:34:48;;;;;;;0.30;0.30;;;;;;;5.53;100.00;100355.91;5037765;28;20059;-77
2022/04/13 01:37:14;;;;;;;0.40;0.40;;;;;;;5.58;100.00;100358.97;5039470;28;20103;-76
2022/04/13 01:39:40;;;;;;;0.40;0.40;;;;;;;5.62;100.00;100358.50;5036525;28;20123;-79
2022/04/13 01:42:06;;;;;;;0.40;0.40;;;;;;;5.67;100.00;100361.56;5038529;28;20357;-78
2022/04/13 01:44:31;;;;;;;0.40;0.40;;;;;;;5.66;100.00;100361.69;5036328;28;20351;-77
2022/04/13 01:46:57;;;;;;;0.40;0.40;;;;;;;5.73;100.00;100362.78;5034420;28;20036;-78
2022/04/13 01:49:23;;;;;;;0.40;0.40;;;;;;;5.75;100.00;100366.13;5037380;28;20406;-78
2022/04/13 01:51:49;;;;;;;0.40;0.40;;;;;;;5.78;100.00;100362.31;5051063;28;20043;-78
2022/04/13 01:54:14;;;;;;;0.40;0.40;;;;;;;5.82;100.00;100371.66;5057746;28;20032;-79
2022/04/13 01:56:40;;;;;;;0.40;0.40;;;;;;;5.48;100.00;100316.41;5052552;28;20044;-78
2022/04/13 01:59:07;;;;;;;0.40;0.40;;;;;;;5.71;100.00;100364.75;5033247;28;20082;-78
2022/04/13 02:01:34;;;;;;;0.40;0.40;;;;;;;5.66;100.00;100364.38;5052270;28;20032;-78
2022/04/13 02:04:00;;;;;;;0.40;0.40;;;;;;;5.58;100.00;100358.97;5050726;28;20032;-78
2022/04/13 02:06:26;;;;;;;0.40;0.40;;;;;;;5.58;100.00;100370.47;5058896;28;20028;-78
2022/04/13 02:08:52;;;;;;;0.40;0.40;;;;;;;5.56;100.00;100364.47;5061220;28;20029;-78
2022/04/13 02:11:18;;;;;;;0.40;0.40;;;;;;;5.56;100.00;100368.94;5067470;28;20028;-78
2022/04/13 02:13:43;;;;;;;0.40;0.40;;;;;;;5.49;100.00;100374.06;5037451;28;20036;-77
2022/04/13 02:16:09;;;;;;;0.50;0.50;;;;;;;5.42;100.00;100363.16;5036854;28;20366;-77
2022/04/13 02:18:35;;;;;;;0.40;0.40;;;;;;;5.46;100.00;100371.69;5037333;28;20047;-77
2022/04/13 02:21:00;;;;;;;0.40;0.40;;;;;;;5.46;100.00;100371.69;5034552;28;20393;-77
2022/04/13 02:23:26;;;;;;;0.40;0.40;;;;;;;5.53;100.00;100377.25;5054722;28;20071;-78
2022/04/13 02:25:51;;;;;;;0.40;0.40;;;;;;;5.55;100.00;100380.59;5035012;28;20038;-76
2022/04/13 02:28:17;;;;;;;0.40;0.40;;;;;;;5.61;100.00;100390.66;5045945;28;20063;-77
2022/04/13 02:30:43;;;;;;;0.40;0.40;;;;;;;5.59;100.00;100392.66;5035210;28;20078;-77
2022/04/13 02:33:09;;;;;;;0.40;0.40;;;;;;;5.60;100.00;100389.81;5048992;28;20037;-77
2022/04/13 02:35:34;;;;;;;0.40;0.40;;;;;;;5.67;100.00;100395.41;5068626;28;20107;-76
2022/04/13 02:38:00;;;;;;;0.40;0.40;;;;;;;5.76;100.00;100394.47;5063727;28;20043;-78
2022/04/13 02:40:25;;;;;;;0.40;0.40;;;;;;;5.79;100.00;100394.16;5053864;28;20051;-77
2022/04/13 02:42:51;;;;;;;0.40;0.40;;;;;;;5.86;100.00;100394.41;5050110;28;20121;-78
2022/04/13 02:45:17;;;;;;;0.40;0.40;;;;;;;5.90;100.00;100396.59;5045553;28;20028;-77
2022/04/13 02:47:42;;;;;;;0.40;0.40;;;;;;;5.96;100.00;100394.34;5067097;28;20394;-77
2022/04/13 02:50:08;;;;;;;0.40;0.40;;;;;;;5.98;100.00;100395.88;5036711;28;20433;-76
2022/04/13 02:52:34;;;;;;;0.35;0.35;;;;;;;5.98;100.00;100398.53;5051420;28;20047;-76
2022/04/13 02:55:00;;;;;;;0.40;0.40;;;;;;;6.02;100.00;100405.22;5072297;28;20033;-77
2022/04/13 02:57:26;;;;;;;0.40;0.40;;;;;;;5.99;100.00;100404.72;5068176;28;21647;-78
2022/04/13 02:59:57;;;;;;;0.40;0.40;;;;;;;5.97;100.00;100391.50;5065115;28;20028;-77
2022/04/13 03:02:23;;;;;;;0.40;0.40;;;;;;;6.05;100.00;100412.91;5070156;28;20029;-77
2022/04/13 03:04:49;;;;;;;0.40;0.40;;;;;;;6.08;100.00;100409.94;5035526;28;20029;-78
2022/04/13 03:07:18;;;;;;;0.35;0.35;;;;;;;6.06;100.00;100411.09;5060628;28;21722;-77
2022/04/13 03:09:44;;;;;;;0.40;0.40;;;;;;;5.93;100.00;100391.00;5036954;28;20048;-77
2022/04/13 03:12:11;;;;;;;0.40;0.40;;;;;;;6.04;100.00;100407.75;5068025;28;20040;-77
2022/04/13 03:14:38;;;;;;;0.40;0.40;;;;;;;6.12;100.00;100424.66;5070115;28;20035;-77
2022/04/13 03:17:04;;;;;;;0.40;0.40;;;;;;;6.16;100.00;100427.84;5067055;28;20414;-77
2022/04/13 03:19:29;;;;;;;0.40;0.40;;;;;;;6.15;100.00;100426.19;5069564;28;20043;-77
2022/04/13 03:21:55;;;;;;;0.40;0.40;;;;;;;6.15;100.00;100429.69;5066369;28;20372;-77
2022/04/13 03:24:22;;;;;;;0.30;0.30;;;;;;;6.18;100.00;100427.72;5051917;28;20064;-76
2022/04/13 03:26:48;;;;;;;0.40;0.40;;;;;;;6.22;100.00;100426.38;5035748;28;20094;-75
2022/04/13 03:29:13;;;;;;;0.40;0.40;;;;;;;6.27;100.00;100440.09;5034375;28;20126;-77
2022/04/13 03:31:39;;;;;;;0.40;0.40;;;;;;;6.30;100.00;100437.16;5068759;28;20170;-77
2022/04/13 03:34:04;;;;;;;0.40;0.40;;;;;;;6.31;100.00;100441.47;5034515;28;20415;-77
2022/04/13 03:36:30;;;;;;;0.40;0.40;;;;;;;6.32;100.00;100440.47;5032630;28;20043;-77
2022/04/13 03:38:59;;;;;;;0.40;0.40;;;;;;;6.30;100.00;100437.97;5033522;28;20032;-76
2022/04/13 03:41:24;;;;;;;0.30;0.30;;;;;;;6.28;100.00;100436.47;5075955;28;20500;-76
2022/04/13 03:43:50;;;;;;;0.40;0.40;;;;;;;6.26;100.00;100438.44;5064521;28;20016;-77
2022/04/13 03:46:16;;;;;;;0.40;0.40;;;;;;;6.30;100.00;100455.84;5050642;28;20525;-76
2022/04/13 03:48:41;;;;;;;0.40;0.40;;;;;;;6.33;100.00;100455.53;5070310;28;20035;-77
2022/04/13 03:51:07;;;;;;;0.40;0.40;;;;;;;6.39;100.00;100460.22;5041883;28;20044;-77
2022/04/13 03:53:32;;;;;;;0.40;0.40;;;;;;;6.43;100.00;100463.41;5046423;28;20044;-77
2022/04/13 03:55:58;;;;;;;0.40;0.40;;;;;;;6.36;100.00;100455.22;5059047;28;20127;-77
2022/04/13 03:58:24;;;;;;;0.40;0.40;;;;;;;6.44;100.00;100470.47;5077041;28;20021;-76
2022/04/13 04:00:53;;;;;;;0.40;0.40;;;;;;;6.51;100.00;100472.34;5031041;28;20067;-76
2022/04/13 04:03:18;;;;;;;0.40;0.40;;;;;;;6.48;100.00;100469.13;5063059;28;20150;-76
2022/04/13 04:05:44;;;;;;;0.40;0.40;;;;;;;6.52;100.00;100465.16;5059244;28;20071;-76
2022/04/13 04:08:10;;;;;;;0.40;0.40;;;;;;;6.53;100.00;100466.84;5052121;28;20033;-76
2022/04/13 04:10:36;;;;;;;0.40;0.40;;;;;;;6.56;100.00;100467.38;5066549;28;20028;-77
2022/04/13 04:13:01;;;;;;;0.40;0.40;;;;;;;6.62;100.00;100475.75;5052618;28;20052;-76
2022/04/13 04:15:27;;;;;;;0.40;0.40;;;;;;;6.54;100.00;100461.34;5063272;28;20029;-77
2022/04/13 04:17:52;;;;;;;0.40;0.40;;;;;;;6.53;100.00;100466.84;5067439;28;20029;-77
2022/04/13 04:20:20;;;;;;;0.40;0.40;;;;;;;6.47;100.00;100468.31;5033762;28;20036;-77
2022/04/13 04:22:46;;;;;;;0.30;0.30;;;;;;;6.45;100.00;100467.59;5067870;28;20420;-76
2022/04/13 04:25:12;;;;;;;0.40;0.40;;;;;;;6.44;100.00;100471.28;5033940;28;20028;-76
2022/04/13 04:27:37;;;;;;;0.50;0.50;;;;;;;6.41;100.00;100476.13;5069279;28;20035;-77
2022/04/13 04:30:03;;;;;;;0.40;0.40;;;;;;;6.39;100.00;100470.91;5031567;28;20032;-76
2022/04/13 04:32:29;;;;;;;0.40;0.40;;;;;;;6.39;100.00;100487.78;5065600;28;20039;-76
2022/04/13 04:34:55;;;;;;;0.40;0.40;;;;;;;6.40;100.00;100485.94;5031488;28;20036;-76
2022/04/13 04:37:20;;;;;;;0.40;0.40;;;;;;;6.44;100.00;100499.84;5050211;28;20032;-76
2022/04/13 04:39:46;;;;;;;0.40;0.40;;;;;;;6.41;100.00;100498.31;5044843;28;20043;-76
2022/04/13 04:42:12;;;;;;;0.40;0.40;;;;;;;6.41;100.00;100500.16;5031326;28;20036;-77
2022/04/13 04:44:37;;;;;;;0.40;0.40;;;;;;;6.38;100.00;100495.97;5047775;28;20043;-77
2022/04/13 04:47:03;;;;;;;0.40;0.40;;;;;;;6.38;100.00;100499.47;5067650;28;20099;-77
2022/04/13 04:49:29;;;;;;;0.40;0.40;;;;;;;6.40;100.00;100507.28;5060733;28;20039;-76
2022/04/13 04:51:54;;;;;;;0.40;0.40;;;;;;;6.37;100.00;100510.28;5063189;28;20040;-78
2022/04/13 04:54:20;;;;;;;0.40;0.40;;;;;;;6.38;100.00;100515.47;5058420;28;20136;-77
2022/04/13 04:56:46;;;;;;;0.40;0.40;;;;;;;6.39;100.00;100524.31;5034497;28;20070;-77
2022/04/13 04:59:11;;;;;;;0.40;0.40;;;;;;;6.40;100.00;100515.31;5068592;28;20445;-78
2022/04/13 05:01:37;;;;;;;0.40;0.40;;;;;;;6.42;100.00;100517.84;5036379;28;20028;-78
2022/04/13 05:04:03;;;;;;;0.40;0.40;;;;;;;6.45;100.00;100518.34;5043447;28;20040;-79
2022/04/13 05:06:29;;;;;;;0.40;0.40;;;;;;;6.47;100.00;100528.91;5052888;28;20473;-77
2022/04/13 05:08:55;;;;;;;0.40;0.40;;;;;;;6.42;100.00;100528.53;5037398;28;20074;-77
2022/04/13 05:11:21;;;;;;;0.40;0.40;;;;;;;6.45;100.00;100538.88;5054422;28;20017;-78
2022/04/13 05:13:47;;;;;;;0.40;0.40;;;;;;;6.43;100.00;100538.19;5081495;28;20043;-76
2022/04/13 05:16:14;;;;;;;0.40;0.40;;;;;;;6.48;100.00;100542.09;5047970;28;20024;-77
2022/04/13 05:18:40;;;;;;;0.40;0.40;;;;;;;6.51;100.00;100544.47;5032798;28;20044;-77
2022/04/13 05:21:06;;;;;;;0.40;0.40;;;;;;;6.52;100.00;100546.13;5069285;28;20036;-77
2022/04/13 05:23:31;;;;;;;0.40;0.40;;;;;;;6.53;100.00;100553.16;5043388;28;20044;-77
2022/04/13 05:25:59;;;;;;;0.40;0.40;;;;;;;6.54;100.00;100549.50;5069041;28;20458;-78
2022/04/13 05:28:25;;;;;;;0.40;0.40;;;;;;;6.54;100.00;100559.34;5050944;28;20024;-77
2022/04/13 05:30:50;;;;;;;0.40;0.40;;;;;;;6.55;100.00;100567.19;5049313;28;20032;-79
2022/04/13 05:33:16;;;;;;;0.35;0.35;;;;;;;6.51;100.00;100560.50;5065986;28;20522;-77
2022/04/13 05:35:42;;;;;;;0.40;0.40;;;;;;;6.50;100.00;100564.13;5049827;28;20095;-78
2022/04/13 05:38:07;;;;;;;0.40;0.40;;;;;;;6.47;100.00;100569.78;5061530;28;20394;-78
2022/04/13 05:40:33;;;;;;;0.43;0.43;;;;;;;6.45;100.00;100574.44;5032935;28;20131;-79
2022/04/13 05:42:59;;;;;;;0.40;0.40;;;;;;;6.41;100.00;100567.75;5052781;28;20458;-77
2022/04/13 05:45:25;;;;;;;0.40;0.40;;;;;;;6.42;100.00;100579.25;5066630;28;20021;-77
2022/04/13 05:47:50;;;;;;;0.30;0.30;;;;;;;6.43;100.00;100591.63;5069044;28;20035;-77
2022/04/13 05:50:16;;;;;;;0.40;0.40;;;;;;;6.41;100.00;100590.94;5052104;28;20087;-77
2022/04/13 05:52:43;;;;;;;0.40;0.40;;;;;;;6.42;100.00;100585.44;5036679;28;20028;-76
2022/04/13 05:55:09;;;;;;;0.40;0.40;;;;;;;6.43;100.00;100587.13;5069825;28;20036;-77
2022/04/13 05:57:34;;;;;;;0.40;0.40;;;;;;;6.42;100.00;100590.78;5051328;28;20044;-76
2022/04/13 06:00:00;;;;;;;0.40;0.40;;;;;;;6.50;100.00;100598.03;5048822;28;20115;-77
2022/04/13 06:02:26;;;;;;;0.40;0.40;;;;;;;6.54;100.00;100599.41;5070619;28;20464;-76
2022/04/13 06:04:51;;;;;;;0.40;0.40;;;;;;;6.54;100.00;100610.09;5070702;28;20422;-76
2022/04/13 06:07:17;;;;;;;0.40;0.40;;;;;;;6.58;100.00;100603.44;5050020;28;20075;-77
2022/04/13 06:09:43;;;;;;;0.40;0.40;;;;;;;6.59;100.00;100605.97;5066294;28;20040;-77
2022/04/13 06:12:09;;;;;;;0.40;0.40;;;;;;;6.66;100.00;100603.50;5065683;28;20024;-76
2022/04/13 06:14:35;;;;;;;0.43;0.43;;;;;;;6.68;100.00;100606.88;5048234;28;20067;-77
2022/04/13 06:17:00;;;;;;;0.40;0.40;;;;;;;6.75;100.00;100613.28;5049424;28;20435;-78
2022/04/13 06:19:26;;;;;;;0.40;0.40;;;;;;;6.79;100.00;100619.97;5042657;28;20047;-77
2022/04/13 06:21:51;;;;;;;0.40;0.40;;;;;;;6.80;100.00;100619.00;5034668;28;20040;-76
2022/04/13 06:24:17;;;;;;;0.40;0.40;;;;;;;6.92;100.00;100627.59;5040233;28;20029;-77
2022/04/13 06:26:43;;;;;;;0.40;0.40;;;;;;;6.98;100.00;100636.84;5068604;28;20028;-78
2022/04/13 06:29:09;;;;;;;0.50;0.50;;;;;;;6.98;100.00;100629.66;5050070;28;20033;-77
2022/04/13 06:31:35;;;;;;;0.40;0.40;;;;;;;7.10;100.00;100643.63;5070454;28;20035;-77
2022/04/13 06:34:00;;;;;;;0.40;0.40;;;;;;;7.13;100.00;100651.31;5049718;28;20305;-77
2022/04/13 06:36:26;;;;;;;0.40;0.40;;;;;;;7.25;100.00;100665.28;5070497;28;20059;-77
2022/04/13 06:38:52;;;;;;;0.40;0.40;;;;;;;7.38;100.00;100665.72;5044412;28;20063;-77
2022/04/13 06:41:17;;;;;;;0.40;0.40;;;;;;;7.49;100.00;100668.13;5059247;28;20033;-77
2022/04/13 06:43:43;;;;;;;0.40;0.40;;;;;;;7.66;100.00;100681.59;5044946;28;20029;-77
2022/04/13 06:46:09;;;;;;;0.40;0.40;;;;;;;7.77;100.00;100672.44;5058636;28;20028;-77
2022/04/13 06:48:35;;;;;;;0.40;0.40;;;;;;;7.92;100.00;100692.28;5061590;28;20020;-76
2022/04/13 06:51:02;;;;;;;0.40;0.40;;;;;;;7.99;100.00;100687.97;5036639;28;20131;-76
2022/04/13 06:53:28;;;;;;;0.50;0.50;;;;;;;8.07;100.00;100697.84;5058699;28;20036;-77
2022/04/13 06:55:54;;;;;;;0.40;0.40;;;;;;;8.22;100.00;100714.97;5051654;28;20513;-76
2022/04/13 06:58:19;;;;;;;0.40;0.40;;;;;;;8.25;100.00;100709.31;5058885;28;20044;-76
2022/04/13 07:00:47;;;;;;;0.50;0.50;;;;;;;8.41;100.00;100711.22;5086488;28;20116;-77
2022/04/13 07:03:12;;;;;;;0.40;0.40;;;;;;;8.55;100.00;100717.81;5067561;28;20146;-77
2022/04/13 07:05:38;;;;;;;0.40;0.40;;;;;;;8.53;100.00;100704.56;5048105;28;20500;-77
2022/04/13 07:08:04;;;;;;;0.40;0.40;;;;;;;8.69;100.00;100719.84;5052584;28;20070;-76
2022/04/13 07:10:30;;;;;;;0.40;0.40;;;;;;;8.72;100.00;100724.03;5050748;28;20047;-76
2022/04/13 07:12:57;;;;;;;0.40;0.40;;;;;;;8.67;100.00;100726.38;5061713;28;20167;-77
2022/04/13 07:15:25;;;;;;;0.47;0.47;;;;;;;8.65;100.00;100731.88;5052255;28;20079;-77
2022/04/13 07:17:54;;;;;;;0.40;0.40;;;;;;;8.81;100.00;100747.16;5062123;28;20406;-77
2022/04/13 07:20:20;;;;;;;0.40;0.40;;;;;;;8.95;100.00;100756.44;5071354;28;20029;-77
2022/04/13 07:22:50;;;;;;;0.47;0.47;;;;;;;9.00;100.00;100740.69;5053602;28;20470;-77
2022/04/13 07:25:17;;;;;;;2.88;2.78;;;;;;;9.07;100.00;100749.72;5067509;28;20466;-75
2022/04/13 07:27:43;;;;;;;0.40;0.40;;;;;;;9.20;100.00;100768.03;5063379;28;20074;-76
2022/04/13 07:30:09;;;;;;;0.60;0.60;;;;;;;9.21;100.00;100767.88;5056414;28;20400;-77
2022/04/13 07:32:35;;;;;;;0.40;0.40;;;;;;;9.25;100.00;100779.94;5061241;28;20040;-78
2022/04/13 07:35:07;;;;;;;0.47;0.47;;;;;;;9.24;100.00;100783.63;5027666;28;20079;-76
2022/04/13 07:37:32;;;;;;;0.40;0.40;;;;;;;9.18;100.00;100783.44;5062434;28;20086;-76
2022/04/13 07:39:58;;;;;;;0.40;0.40;;;;;;;9.08;100.00;100780.94;5063149;28;20175;-77
2022/04/13 07:42:27;;;;;;;0.40;0.40;;;;;;;9.16;100.00;100799.72;5061402;28;20043;-77
2022/04/13 07:44:54;;;;;;;0.40;0.40;;;;;;;9.14;100.00;100799.03;5068410;28;20090;-77
2022/04/13 07:47:22;;;;;;;0.50;0.50;;;;;;;9.16;100.00;100807.75;5061274;28;20040;-77
2022/04/13 07:49:49;;;;;;;0.40;0.40;;;;;;;9.15;100.00;100800.69;5048074;28;20024;-77
2022/04/13 07:52:15;;;;;;;0.40;0.40;;;;;;;9.17;100.00;100803.22;5062995;28;20035;-78
2022/04/13 07:54:41;;;;;;;0.40;0.40;;;;;;;9.13;100.00;100789.31;5052189;28;20029;-78
2022/04/13 07:57:10;;;;;;;0.45;0.45;;;;;;;9.24;100.00;100791.69;5062517;28;20041;-76
2022/04/13 07:59:39;;;;;;;0.40;0.40;;;;;;;9.34;100.00;100782.59;5069329;28;20044;-76
2022/04/13 08:02:34;;;;;;;0.50;0.50;;;;;;;9.51;100.00;100772.72;5042187;28;20056;-76
2022/04/13 08:05:57;;;;;;;0.50;0.50;;;;;;;10.19;100.00;100748.09;5047414;28;20033;-78
2022/04/13 08:09:13;;;;;;;0.40;0.40;;;;;;;10.64;100.00;100759.16;5050840;28;20454;-78
2022/04/13 08:11:52;;;;;;;0.40;0.40;;;;;;;10.65;100.00;100761.69;5060124;28;20116;-77
2022/04/13 08:14:22;;;;;;;0.40;0.40;;;;;;;10.92;100.00;100787.25;5057239;28;22032;-77
2022/04/13 08:16:48;;;;;;;0.40;0.40;;;;;;;11.08;100.00;100793.53;5064647;28;20378;-78
2022/04/13 08:19:14;;;;;;;0.40;0.40;;;;;;;11.40;100.00;100777.16;5033479;28;20060;-78
2022/04/13 08:21:39;;;;;;;0.40;0.40;;;;;;;11.79;100.00;100780.69;5045071;28;20415;-77
2022/04/13 08:24:06;;;;;;;0.50;0.50;;;;;;;12.07;100.00;100767.47;5046693;28;20413;-78
2022/04/13 08:26:31;;;;;;;0.50;0.50;;;;;;;12.41;100.00;100777.69;5068573;28;20029;-77
2022/04/13 08:28:57;;;;;;;0.40;0.40;;;;;;;12.74;100.00;100775.38;5032190;28;20826;-79
2022/04/13 08:31:23;;;;;;;0.45;0.45;;;;;;;13.02;100.00;100771.97;5063834;28;20048;-77
2022/04/13 08:33:48;;;;;;;0.50;0.50;;;;;;;13.31;100.00;100759.41;5063965;28;20024;-80
2022/04/13 08:36:14;;;;;;;0.50;0.50;;;;;;;13.80;100.00;100772.91;5049847;28;20033;-80
2022/04/13 08:38:40;;;;;;;0.50;0.50;;;;;;;14.25;100.00;100773.41;5054258;28;20029;-80
2022/04/13 08:41:18;;;;;;;0.50;0.50;;;;;;;14.94;97.12;100766.22;5068772;28;20090;-80
2022/04/13 08:43:52;;;;;;;0.50;0.50;;;;;;;15.05;99.42;100779.16;5039744;28;20040;-80
2022/04/13 08:46:24;;;;;;;0.75;0.75;;;;;;;15.10;98.18;100786.66;5034246;28;20359;-80
2022/04/13 08:48:52;;;;;;;1.40;1.38;;;;;;;15.08;96.37;100792.31;5069857;28;20123;-80
2022/04/13 08:51:19;;;;;;;0.63;0.60;;;;;;;15.04;97.96;100801.88;5030230;28;20040;-81
2022/04/13 08:53:48;;;;;;;0.50;0.50;;;;;;;15.04;97.23;100804.56;5053027;28;20390;-80
2022/04/13 08:56:17;;;;;;;0.57;0.57;;;;;;;14.89;98.29;100806.59;5052020;28;20062;-80
2022/04/13 08:58:55;;;;;;;0.88;0.88;;;;;;;14.76;100.00;100804.69;5053003;28;20029;-80
2022/04/13 09:01:57;;;;;;;1.67;1.60;;;;;;;15.23;99.07;100797.53;5060982;28;20033;-81
2022/04/13 09:04:24;;;;;;;;;;;;;;;14.97;100.00;100816.41;5047934;28;20072;-77
2022/04/13 09:06:50;;;;;;;1.83;1.73;;;;;;;14.54;100.00;100813.97;5069277;28;19916;-79
2022/04/13 09:09:28;;;;;;;1.25;1.15;;;;;;;14.43;100.00;100810.75;5050699;28;20039;-79
2022/04/13 09:11:55;;;;;;;10.30;2.28;;;;;;;14.05;100.00;100796.78;5067339;28;20426;-80
2022/04/13 09:14:21;;;;;;;2.22;1.38;;;;;;;13.99;100.00;100814.63;5052479;28;20036;-79
2022/04/13 09:16:47;;;;;;;1.25;1.17;;;;;;;13.94;100.00;100808.97;5071315;28;20089;-80
2022/04/13 09:19:12;;;;;;;2.55;2.25;;;;;;;13.97;100.00;100814.00;5073744;28;20123;-79
2022/04/13 09:21:39;;;;;;;3.97;2.03;;;;;;;14.33;100.00;100817.56;5068076;28;20037;-80
2022/04/13 09:24:07;;;;;;;3.55;3.05;;;;;;;14.54;100.00;100828.31;5048361;28;20039;-79
2022/04/13 09:26:33;;;;;;;2.40;1.42;;;;;;;14.22;100.00;100843.28;5072497;28;20024;-81
2022/04/13 09:28:58;;;;;;;3.50;2.20;;;;;;;13.84;100.00;100849.88;5055723;28;20082;-80
2022/04/13 09:31:24;;;;;;;3.83;2.03;;;;;;;13.74;100.00;100853.94;5038915;28;20027;-80
2022/04/13 09:33:50;;;;;;;7.28;3.22;;;;;;;14.14;100.00;100862.38;5036950;28;20040;-78
2022/04/13 09:36:16;;;;;;;5.55;2.95;;;;;;;14.72;100.00;100849.44;5045296;28;20049;-78
2022/04/13 09:38:42;;;;;;;6.32;3.35;;;;;;;15.01;100.00;100853.72;5077962;28;20355;-78
2022/04/13 09:41:10;;;;;;;6.20;3.45;;;;;;;15.95;100.00;100846.63;5054850;28;20036;-77
2022/04/13 09:43:36;;;;;;;6.70;3.70;;;;;;;16.52;98.40;100855.94;5064937;28;20194;-77
2022/04/13 09:46:02;;;;;;;7.05;3.78;;;;;;;16.46;96.71;100854.09;5053262;28;20062;-78
2022/04/13 09:48:29;;;;;;;6.50;3.90;;;;;;;17.01;94.89;100856.41;5064414;28;20045;-78
2022/04/13 09:50:59;;;;;;;7.75;3.67;;;;;;;18.89;87.29;100856.38;5071218;28;20039;-77
2022/04/13 09:53:24;;;;;;;8.00;4.18;;;;;;;19.37;85.86;100862.03;5051661;28;20543;-78
2022/04/13 09:55:51;;;;;;;8.27;4.13;;;;;;;18.92;87.98;100860.53;5054198;28;20025;-77
2022/04/13 09:58:18;;;;;;;8.50;3.63;;;;;;;18.88;87.80;100868.31;5067735;28;20040;-78
2022/04/13 10:00:47;;;;;;;7.72;3.58;;;;;;;19.10;87.32;100851.50;5064208;28;20024;-77
2022/04/13 10:03:16;;;;;;;9.40;3.35;;;;;;;19.08;87.71;100859.09;5053061;28;20032;-78
2022/04/13 10:05:47;;;;;;;7.80;4.03;;;;;;;18.64;89.63;100847.44;5047690;28;20048;-77
2022/04/13 10:08:22;;;;;;;9.00;3.30;;;;;;;18.83;88.92;100843.66;5069946;28;20470;-77
2022/04/13 10:10:49;;;;;;;10.02;3.80;;;;;;;18.55;91.23;100854.22;5041599;28;20035;-78
2022/04/13 10:13:34;;;;;;;8.57;3.60;;;;;;;18.00;91.23;100852.25;5060268;28;20052;-77
2022/04/13 10:16:03;;;;;;;9.40;3.97;;;;;;;17.31;94.74;100853.97;5063570;28;20170;-77
2022/04/13 10:18:31;;;;;;;11.13;3.75;;;;;;;17.67;97.11;100855.19;5066552;28;20114;-77
2022/04/13 10:20:57;;;;;;;10.90;3.50;;;;;;;20.32;88.19;100858.44;5076924;28;20037;-77
2022/04/13 10:23:22;;;;;;;12.32;4.10;;;;;;;22.22;81.86;100873.91;5038733;28;20055;-77
2022/04/13 10:25:48;;;;;;;9.50;3.20;;;;;;;22.55;78.05;100881.25;5038675;28;20037;-78
2022/04/13 10:28:21;;;;;;;9.57;3.78;;;;;;;22.40;79.18;100879.13;5031145;28;20043;-76
2022/04/13 10:30:48;;;;;;;12.77;3.63;;;;;;;21.72;80.53;100867.31;5077506;28;20035;-78
2022/04/13 10:33:14;;;;;;;6.63;3.00;;;;;;;21.55;82.35;100867.31;5067558;28;20028;-77
2022/04/13 10:35:42;;;;;;;13.63;3.45;;;;;;;21.28;81.55;100881.56;5049927;28;20044;-78
2022/04/13 10:38:08;;;;;;;8.20;3.15;;;;;;;23.00;77.91;100889.28;5052378;28;20029;-78
2022/04/13 10:40:36;;;;;;;10.60;3.30;;;;;;;24.64;69.83;100885.31;5046574;28;20033;-77
2022/04/13 10:43:04;;;;;;;5.53;2.97;;;;;;;23.64;70.66;100877.63;5038323;28;20032;-76
2022/04/13 10:45:31;;;;;;;8.40;2.55;;;;;;;23.33;72.77;100860.03;5054359;28;20059;-76
2022/04/13 10:48:01;;;;;;;11.38;2.85;;;;;;;22.36;77.43;100872.47;5035674;28;20094;-76
2022/04/13 10:50:45;;;;;;;8.07;3.13;;;;;;;23.85;72.17;100877.84;5066193;28;20049;-77
2022/04/13 10:53:38;;;;;;;11.40;2.83;;;;;;;22.54;79.82;100874.09;5086705;28;20060;-77
2022/04/13 10:56:05;;;;;;;8.77;3.40;;;;;;;22.94;75.60;100862.88;5055001;28;20036;-77
2022/04/13 10:59:03;;;;;;;10.05;3.50;;;;;;;26.70;64.38;100863.31;5067099;28;20036;-77
2022/04/13 11:01:31;;;;;;;7.57;3.08;;;;;;;27.74;60.31;100850.59;5026257;28;20036;-76
2022/04/13 11:03:58;;;;;;;6.72;3.05;;;;;;;27.44;59.68;100862.66;5064283;28;20037;-76
2022/04/13 11:06:23;;;;;;;6.85;3.22;;;;;;;27.20;59.08;100855.09;5031729;28;20040;-77
2022/04/13 11:08:59;;;;;;;9.82;3.05;;;;;;;27.35;58.70;100851.41;5049662;28;20041;-76
2022/04/13 11:11:27;;;;;;;6.05;3.30;;;;;;;27.48;59.53;100849.97;5048495;28;20034;-77
2022/04/13 11:13:53;;;;;;;9.13;3.85;;;;;;;27.00;59.41;100858.75;5069363;28;20028;-77
2022/04/13 11:16:24;;;;;;;5.95;2.50;;;;;;;27.13;61.10;100852.63;5036716;28;20536;-77
2022/04/13 11:19:04;;;;;;;9.30;3.15;;;;;;;25.98;60.86;100845.22;5066834;28;21874;-77
2022/04/13 11:21:31;;;;;;;6.75;3.13;;;;;;;25.59;62.38;100867.75;5071105;28;20498;-76
2022/04/13 11:23:57;;;;;;;9.65;2.65;;;;;;;24.97;62.38;100851.06;5050727;28;20388;-77
2022/04/13 11:26:26;;;;;;;7.00;2.88;;;;;;;24.03;65.51;100862.91;5036304;28;20105;-77